HAZ2896 ZBHH-ZSHC
Flight info
| Callsign | HAZ2896 |
|---|---|
| Flight time | 1h 57m |
| Altitude | 35100 |
| Route | TODAM8ZD TODAM B208 CGO W129 KAMDA W128 FYG B208 HFE R343 UPLEL W95 SAPIN A470 IGRAT IGRAT81 |
| Aircraft | A320/M-SDE3FGHIRWY/LB1 |
Departure
| Time | 2026-05-07 02:18 |
|---|---|
| Airport | Hohhot Baita International Airport (ZBHH) |
Arrival
| Time | 2026-05-07 04:15 |
|---|---|
| Airport | Hangzhou Xiaoshan International Airport (ZSHC) |
| Time | Latitude | Longitude | Altitude | Speed | Heading |
|---|---|---|---|---|---|
| 2026-05-07 01:54 | 40.85305 | 111.81542 | 3534 ft | 0 kts | 343° |
| 2026-05-07 02:06 | 40.85298 | 111.81545 | 3534 ft | 3 kts | 345° |
| 2026-05-07 02:06 | 40.85277 | 111.81550 | 3534 ft | 3 kts | 355° |
| 2026-05-07 02:06 | 40.85255 | 111.81550 | 3534 ft | 3 kts | 10° |
| 2026-05-07 02:07 | 40.85235 | 111.81542 | 3534 ft | 3 kts | 32° |
| 2026-05-07 02:07 | 40.85216 | 111.81514 | 3534 ft | 0 kts | 73° |
| 2026-05-07 02:10 | 40.85231 | 111.81574 | 3534 ft | 11 kts | 72° |
| 2026-05-07 02:10 | 40.85242 | 111.81664 | 3534 ft | 8 kts | 115° |
| 2026-05-07 02:10 | 40.85194 | 111.81691 | 3534 ft | 9 kts | 164° |
| 2026-05-07 02:10 | 40.85111 | 111.81725 | 3534 ft | 15 kts | 165° |
| 2026-05-07 02:11 | 40.85012 | 111.81783 | 3533 ft | 15 kts | 118° |
| 2026-05-07 02:11 | 40.85030 | 111.81907 | 3533 ft | 15 kts | 72° |
| 2026-05-07 02:11 | 40.85071 | 111.82078 | 3532 ft | 23 kts | 71° |
| 2026-05-07 02:11 | 40.85119 | 111.82283 | 3532 ft | 24 kts | 73° |
| 2026-05-07 02:12 | 40.85167 | 111.82495 | 3532 ft | 24 kts | 72° |
| 2026-05-07 02:12 | 40.85219 | 111.82710 | 3533 ft | 25 kts | 72° |
| 2026-05-07 02:12 | 40.85272 | 111.82930 | 3533 ft | 25 kts | 71° |
| 2026-05-07 02:12 | 40.85326 | 111.83155 | 3533 ft | 26 kts | 74° |
| 2026-05-07 02:13 | 40.85381 | 111.83384 | 3533 ft | 26 kts | 77° |
| 2026-05-07 02:13 | 40.85434 | 111.83618 | 3532 ft | 27 kts | 74° |
| 2026-05-07 02:13 | 40.85493 | 111.83855 | 3533 ft | 27 kts | 70° |
| 2026-05-07 02:13 | 40.85543 | 111.84084 | 3533 ft | 16 kts | 73° |
| 2026-05-07 02:14 | 40.85576 | 111.84222 | 3533 ft | 15 kts | 73° |
| 2026-05-07 02:14 | 40.85586 | 111.84269 | 3533 ft | 2 kts | 72° |
| 2026-05-07 02:14 | 40.85592 | 111.84293 | 3533 ft | 4 kts | 71° |
| 2026-05-07 02:14 | 40.85594 | 111.84299 | 3533 ft | 0 kts | 71° |
| 2026-05-07 02:15 | 40.85595 | 111.84305 | 3533 ft | 3 kts | 72° |
| 2026-05-07 02:15 | 40.85608 | 111.84361 | 3533 ft | 8 kts | 75° |
| 2026-05-07 02:15 | 40.85582 | 111.84413 | 3532 ft | 8 kts | 155° |
| 2026-05-07 02:16 | 40.85488 | 111.84452 | 3527 ft | 18 kts | 161° |
| 2026-05-07 02:16 | 40.85439 | 111.84439 | 3526 ft | 5 kts | 240° |
| 2026-05-07 02:16 | 40.85434 | 111.84419 | 3526 ft | 0 kts | 252° |
| 2026-05-07 02:17 | 40.85432 | 111.84413 | 3526 ft | 5 kts | 252° |
| 2026-05-07 02:17 | 40.85367 | 111.84134 | 3525 ft | 68 kts | 253° |
| 2026-05-07 02:17 | 40.85165 | 111.83279 | 3528 ft | 128 kts | 252° |
| 2026-05-07 02:17 | 40.84847 | 111.81920 | 3528 ft | 176 kts | 254° |
| 2026-05-07 02:18 | 40.84462 | 111.80290 | 3843 ft | 197 kts | 254° |
| 2026-05-07 02:18 | 40.84041 | 111.78514 | 4563 ft | 205 kts | 258° |
| 2026-05-07 02:18 | 40.83624 | 111.76731 | 5333 ft | 203 kts | 256° |
| 2026-05-07 02:18 | 40.83191 | 111.74895 | 5735 ft | 218 kts | 255° |
| 2026-05-07 02:19 | 40.82732 | 111.72951 | 6296 ft | 225 kts | 255° |
| 2026-05-07 02:19 | 40.82262 | 111.70971 | 6968 ft | 225 kts | 258° |
| 2026-05-07 02:19 | 40.81794 | 111.68994 | 7581 ft | 226 kts | 257° |
| 2026-05-07 02:19 | 40.81030 | 111.67130 | 7964 ft | 246 kts | 228° |
| 2026-05-07 02:20 | 40.79426 | 111.66070 | 8259 ft | 275 kts | 188° |
| 2026-05-07 02:20 | 40.77543 | 111.66457 | 9004 ft | 281 kts | 155° |
| 2026-05-07 02:20 | 40.75802 | 111.67822 | 9381 ft | 301 kts | 141° |
| 2026-05-07 02:20 | 40.74123 | 111.69538 | 10028 ft | 310 kts | 140° |
| 2026-05-07 02:21 | 40.72387 | 111.71341 | 10463 ft | 329 kts | 140° |
| 2026-05-07 02:21 | 40.70524 | 111.73261 | 10694 ft | 352 kts | 142° |
| 2026-05-07 02:21 | 40.68401 | 111.75083 | 10858 ft | 376 kts | 148° |
| 2026-05-07 02:21 | 40.66047 | 111.76776 | 11189 ft | 392 kts | 152° |
| 2026-05-07 02:22 | 40.63586 | 111.78382 | 11822 ft | 397 kts | 154° |
| 2026-05-07 02:22 | 40.60985 | 111.79652 | 12511 ft | 401 kts | 163° |
| 2026-05-07 02:22 | 40.58315 | 111.80761 | 13239 ft | 404 kts | 162° |
| 2026-05-07 02:22 | 40.55653 | 111.81970 | 13931 ft | 407 kts | 161° |
| 2026-05-07 02:23 | 40.52987 | 111.83252 | 14548 ft | 410 kts | 160° |
| 2026-05-07 02:23 | 40.50305 | 111.84579 | 15130 ft | 413 kts | 160° |
| 2026-05-07 02:23 | 40.47606 | 111.85919 | 15684 ft | 417 kts | 160° |
| 2026-05-07 02:23 | 40.44876 | 111.87261 | 16224 ft | 420 kts | 160° |
| 2026-05-07 02:24 | 40.42121 | 111.88597 | 16763 ft | 424 kts | 161° |
| 2026-05-07 02:24 | 40.39320 | 111.89856 | 17280 ft | 427 kts | 166° |
| 2026-05-07 02:24 | 40.36431 | 111.90835 | 17815 ft | 430 kts | 167° |
| 2026-05-07 02:24 | 40.33519 | 111.91816 | 18324 ft | 434 kts | 167° |
| 2026-05-07 02:25 | 40.30583 | 111.92808 | 18792 ft | 438 kts | 167° |
| 2026-05-07 02:25 | 40.27623 | 111.93813 | 19236 ft | 441 kts | 167° |
| 2026-05-07 02:25 | 40.24639 | 111.94825 | 19623 ft | 445 kts | 168° |
| 2026-05-07 02:25 | 40.21626 | 111.95847 | 20017 ft | 449 kts | 168° |
| 2026-05-07 02:26 | 40.18587 | 111.96877 | 20436 ft | 453 kts | 168° |
| 2026-05-07 02:26 | 40.15566 | 111.97901 | 20850 ft | 456 kts | 168° |
| 2026-05-07 02:26 | 40.12484 | 111.98942 | 21266 ft | 459 kts | 169° |
| 2026-05-07 02:26 | 40.09378 | 111.99986 | 21674 ft | 463 kts | 169° |
| 2026-05-07 02:27 | 40.06249 | 112.01033 | 22075 ft | 466 kts | 169° |
| 2026-05-07 02:27 | 40.03101 | 112.02087 | 22448 ft | 469 kts | 170° |
| 2026-05-07 02:27 | 39.99931 | 112.03154 | 22828 ft | 472 kts | 170° |
| 2026-05-07 02:27 | 39.96742 | 112.04229 | 23209 ft | 475 kts | 170° |
| 2026-05-07 02:28 | 39.93531 | 112.05309 | 23578 ft | 478 kts | 170° |
| 2026-05-07 02:28 | 39.90302 | 112.06392 | 23942 ft | 481 kts | 170° |
| 2026-05-07 02:28 | 39.87055 | 112.07477 | 24254 ft | 483 kts | 170° |
| 2026-05-07 02:28 | 39.83790 | 112.08569 | 24571 ft | 486 kts | 171° |
| 2026-05-07 02:29 | 39.80508 | 112.09666 | 24842 ft | 488 kts | 171° |
| 2026-05-07 02:29 | 39.77209 | 112.10767 | 25137 ft | 490 kts | 171° |
| 2026-05-07 02:29 | 39.73896 | 112.11870 | 25432 ft | 493 kts | 171° |
| 2026-05-07 02:29 | 39.70570 | 112.12976 | 25726 ft | 494 kts | 172° |
| 2026-05-07 02:30 | 39.67236 | 112.14082 | 26050 ft | 495 kts | 172° |
| 2026-05-07 02:30 | 39.63898 | 112.15193 | 26363 ft | 496 kts | 172° |
| 2026-05-07 02:30 | 39.60547 | 112.16310 | 26669 ft | 498 kts | 172° |
| 2026-05-07 02:30 | 39.57184 | 112.17430 | 26902 ft | 500 kts | 173° |
| 2026-05-07 02:31 | 39.53808 | 112.18549 | 27177 ft | 502 kts | 173° |
| 2026-05-07 02:31 | 39.50423 | 112.19669 | 27475 ft | 502 kts | 173° |
| 2026-05-07 02:31 | 39.47037 | 112.20738 | 27876 ft | 499 kts | 175° |
| 2026-05-07 02:31 | 39.43649 | 112.21668 | 28257 ft | 496 kts | 177° |
| 2026-05-07 02:32 | 39.40264 | 112.22489 | 28662 ft | 494 kts | 178° |
| 2026-05-07 02:32 | 39.36886 | 112.23249 | 29005 ft | 492 kts | 180° |
| 2026-05-07 02:32 | 39.33514 | 112.23993 | 29441 ft | 491 kts | 180° |
| 2026-05-07 02:32 | 39.30151 | 112.24751 | 29846 ft | 490 kts | 179° |
| 2026-05-07 02:33 | 39.26800 | 112.25539 | 30233 ft | 489 kts | 179° |
| 2026-05-07 02:33 | 39.23457 | 112.26357 | 30609 ft | 488 kts | 179° |
| 2026-05-07 02:33 | 39.20125 | 112.27190 | 30940 ft | 488 kts | 179° |
| 2026-05-07 02:33 | 39.16795 | 112.28024 | 31254 ft | 487 kts | 179° |
| 2026-05-07 02:34 | 39.13465 | 112.28854 | 31475 ft | 487 kts | 179° |
| 2026-05-07 02:34 | 39.10138 | 112.29676 | 31800 ft | 486 kts | 179° |
| 2026-05-07 02:34 | 39.06818 | 112.30487 | 32124 ft | 485 kts | 180° |
| 2026-05-07 02:34 | 39.03502 | 112.31289 | 32421 ft | 485 kts | 180° |
| 2026-05-07 02:35 | 39.01304 | 112.31819 | 32636 ft | 485 kts | 180° |
| 2026-05-07 02:35 | 38.96914 | 112.32880 | 33044 ft | 485 kts | 180° |
| 2026-05-07 02:35 | 38.93604 | 112.33682 | 33344 ft | 484 kts | 180° |
| 2026-05-07 02:35 | 38.90289 | 112.34486 | 33608 ft | 484 kts | 180° |
| 2026-05-07 02:36 | 38.86979 | 112.35291 | 33853 ft | 485 kts | 180° |
| 2026-05-07 02:36 | 38.84742 | 112.35837 | 34044 ft | 485 kts | 180° |
| 2026-05-07 02:36 | 38.81429 | 112.36643 | 34347 ft | 484 kts | 180° |
| 2026-05-07 02:36 | 38.77048 | 112.37708 | 34684 ft | 484 kts | 180° |
| 2026-05-07 02:37 | 38.73739 | 112.38512 | 34873 ft | 484 kts | 179° |
| 2026-05-07 02:37 | 38.71507 | 112.39052 | 35002 ft | 484 kts | 180° |
| 2026-05-07 02:37 | 38.67136 | 112.40106 | 35318 ft | 481 kts | 181° |
| 2026-05-07 02:37 | 38.64959 | 112.40627 | 35377 ft | 482 kts | 181° |
| 2026-05-07 02:38 | 38.58337 | 112.42208 | 35390 ft | 485 kts | 181° |
| 2026-05-07 02:38 | 38.51698 | 112.43794 | 35382 ft | 487 kts | 181° |
| 2026-05-07 02:39 | 38.44965 | 112.45392 | 35380 ft | 495 kts | 182° |
| 2026-05-07 02:39 | 38.38185 | 112.47009 | 35373 ft | 495 kts | 182° |
| 2026-05-07 02:40 | 38.31408 | 112.48614 | 35375 ft | 495 kts | 182° |
| 2026-05-07 02:40 | 38.24630 | 112.50212 | 35321 ft | 496 kts | 182° |
| 2026-05-07 02:41 | 38.17844 | 112.51811 | 35348 ft | 496 kts | 182° |
| 2026-05-07 02:41 | 38.11061 | 112.53404 | 35361 ft | 496 kts | 182° |
| 2026-05-07 02:42 | 38.04273 | 112.54988 | 35364 ft | 496 kts | 182° |
| 2026-05-07 02:42 | 37.97486 | 112.56575 | 35329 ft | 496 kts | 182° |
| 2026-05-07 02:43 | 37.90695 | 112.58161 | 35361 ft | 496 kts | 182° |
| 2026-05-07 02:43 | 37.83901 | 112.59746 | 35372 ft | 496 kts | 182° |
| 2026-05-07 02:44 | 37.77116 | 112.61360 | 35346 ft | 496 kts | 181° |
| 2026-05-07 02:44 | 37.70340 | 112.63197 | 35372 ft | 502 kts | 178° |
| 2026-05-07 02:45 | 37.63575 | 112.65531 | 35381 ft | 505 kts | 175° |
| 2026-05-07 02:45 | 37.56813 | 112.67955 | 35378 ft | 504 kts | 176° |
| 2026-05-07 02:46 | 37.50052 | 112.70264 | 35351 ft | 502 kts | 177° |
| 2026-05-07 02:46 | 37.43296 | 112.72492 | 35365 ft | 502 kts | 177° |
| 2026-05-07 02:47 | 37.36541 | 112.74712 | 35364 ft | 502 kts | 177° |
| 2026-05-07 02:47 | 37.29789 | 112.76950 | 35311 ft | 501 kts | 176° |
| 2026-05-07 02:48 | 37.23049 | 112.79196 | 35346 ft | 501 kts | 176° |
| 2026-05-07 02:48 | 37.16314 | 112.81436 | 35361 ft | 500 kts | 177° |
| 2026-05-07 02:49 | 37.09583 | 112.83654 | 35353 ft | 500 kts | 177° |
| 2026-05-07 02:49 | 37.02904 | 112.85852 | 35309 ft | 500 kts | 176° |
| 2026-05-07 02:50 | 36.96173 | 112.88076 | 35320 ft | 500 kts | 176° |
| 2026-05-07 02:50 | 36.89444 | 112.90302 | 35319 ft | 501 kts | 176° |
| 2026-05-07 02:51 | 36.82709 | 112.92528 | 35274 ft | 501 kts | 176° |
| 2026-05-07 02:51 | 36.75970 | 112.94752 | 35287 ft | 501 kts | 176° |
| 2026-05-07 02:52 | 36.69224 | 112.96972 | 35293 ft | 502 kts | 176° |
| 2026-05-07 02:52 | 36.62473 | 112.99189 | 35300 ft | 502 kts | 176° |
| 2026-05-07 02:53 | 36.55716 | 113.01401 | 35311 ft | 502 kts | 176° |
| 2026-05-07 02:53 | 36.48954 | 113.03607 | 35312 ft | 502 kts | 176° |
| 2026-05-07 02:54 | 36.42195 | 113.05810 | 35312 ft | 502 kts | 176° |
| 2026-05-07 02:54 | 36.35436 | 113.08011 | 35292 ft | 502 kts | 176° |
| 2026-05-07 02:55 | 36.28682 | 113.10208 | 35311 ft | 501 kts | 176° |
| 2026-05-07 02:55 | 36.21975 | 113.12616 | 35314 ft | 507 kts | 170° |
| 2026-05-07 02:56 | 36.15398 | 113.15572 | 35325 ft | 505 kts | 170° |
| 2026-05-07 02:56 | 36.08799 | 113.18537 | 35277 ft | 504 kts | 169° |
| 2026-05-07 02:57 | 36.02217 | 113.21479 | 35304 ft | 502 kts | 169° |
| 2026-05-07 02:57 | 35.95649 | 113.24408 | 35312 ft | 501 kts | 169° |
| 2026-05-07 02:58 | 35.89088 | 113.27333 | 35319 ft | 501 kts | 170° |
| 2026-05-07 02:58 | 35.82534 | 113.30249 | 35268 ft | 500 kts | 169° |
| 2026-05-07 02:59 | 35.75997 | 113.33159 | 35304 ft | 499 kts | 169° |
| 2026-05-07 02:59 | 35.69472 | 113.36075 | 35307 ft | 498 kts | 169° |
| 2026-05-07 03:00 | 35.62963 | 113.38991 | 35304 ft | 497 kts | 169° |
| 2026-05-07 03:00 | 35.56454 | 113.41884 | 35274 ft | 497 kts | 169° |
| 2026-05-07 03:01 | 35.49965 | 113.44749 | 35304 ft | 495 kts | 169° |
| 2026-05-07 03:01 | 35.43479 | 113.47625 | 35301 ft | 495 kts | 169° |
| 2026-05-07 03:02 | 35.37003 | 113.50514 | 35305 ft | 495 kts | 169° |
| 2026-05-07 03:02 | 35.30575 | 113.53375 | 35293 ft | 495 kts | 169° |
| 2026-05-07 03:03 | 35.24111 | 113.56246 | 35299 ft | 494 kts | 169° |
| 2026-05-07 03:03 | 35.17653 | 113.59111 | 35300 ft | 493 kts | 169° |
| 2026-05-07 03:04 | 35.11200 | 113.61962 | 35305 ft | 493 kts | 169° |
| 2026-05-07 03:04 | 35.04753 | 113.64813 | 35266 ft | 493 kts | 169° |
| 2026-05-07 03:05 | 34.98306 | 113.67652 | 35279 ft | 493 kts | 169° |
| 2026-05-07 03:05 | 34.91853 | 113.70494 | 35289 ft | 493 kts | 169° |
| 2026-05-07 03:06 | 34.85394 | 113.73302 | 35293 ft | 491 kts | 171° |
| 2026-05-07 03:06 | 34.78876 | 113.75614 | 35270 ft | 486 kts | 174° |
| 2026-05-07 03:07 | 34.72321 | 113.77567 | 35289 ft | 485 kts | 175° |
| 2026-05-07 03:07 | 34.65777 | 113.79555 | 35299 ft | 486 kts | 174° |
| 2026-05-07 03:08 | 34.59239 | 113.81665 | 35304 ft | 487 kts | 173° |
| 2026-05-07 03:08 | 34.52706 | 113.83820 | 35295 ft | 486 kts | 173° |
| 2026-05-07 03:09 | 34.46175 | 113.85945 | 35303 ft | 486 kts | 174° |
| 2026-05-07 03:09 | 34.39679 | 113.88003 | 35275 ft | 485 kts | 174° |
| 2026-05-07 03:10 | 34.33100 | 113.90072 | 35278 ft | 485 kts | 174° |
| 2026-05-07 03:10 | 34.26610 | 113.92108 | 35253 ft | 485 kts | 174° |
| 2026-05-07 03:11 | 34.20078 | 113.94168 | 35261 ft | 485 kts | 174° |
| 2026-05-07 03:11 | 34.13542 | 113.96237 | 35267 ft | 486 kts | 174° |
| 2026-05-07 03:12 | 34.07006 | 113.98300 | 35262 ft | 486 kts | 174° |
| 2026-05-07 03:12 | 34.00468 | 114.00350 | 35266 ft | 485 kts | 174° |
| 2026-05-07 03:13 | 33.93928 | 114.02399 | 35258 ft | 485 kts | 174° |
| 2026-05-07 03:13 | 33.87390 | 114.04443 | 35258 ft | 486 kts | 174° |
| 2026-05-07 03:14 | 33.80853 | 114.06495 | 35247 ft | 485 kts | 173° |
| 2026-05-07 03:15 | 33.71056 | 114.09579 | 35252 ft | 485 kts | 173° |
| 2026-05-07 03:15 | 33.64533 | 114.11633 | 35252 ft | 485 kts | 173° |
| 2026-05-07 03:16 | 33.58011 | 114.13670 | 35248 ft | 484 kts | 173° |
| 2026-05-07 03:16 | 33.51488 | 114.15715 | 35221 ft | 485 kts | 173° |
| 2026-05-07 03:17 | 33.44956 | 114.17787 | 35214 ft | 489 kts | 169° |
| 2026-05-07 03:17 | 33.41787 | 114.19384 | 35216 ft | 501 kts | 158° |
| 2026-05-07 03:17 | 33.38863 | 114.21719 | 35218 ft | 511 kts | 146° |
| 2026-05-07 03:17 | 33.36320 | 114.24741 | 35213 ft | 520 kts | 133° |
| 2026-05-07 03:18 | 33.34280 | 114.28344 | 35209 ft | 528 kts | 121° |
| 2026-05-07 03:18 | 33.31524 | 114.36530 | 35208 ft | 532 kts | 113° |
| 2026-05-07 03:19 | 33.28915 | 114.44817 | 35195 ft | 533 kts | 113° |
| 2026-05-07 03:19 | 33.26308 | 114.53119 | 35202 ft | 534 kts | 113° |
| 2026-05-07 03:20 | 33.23728 | 114.61440 | 35208 ft | 534 kts | 112° |
| 2026-05-07 03:20 | 33.21140 | 114.69763 | 35210 ft | 535 kts | 113° |
| 2026-05-07 03:21 | 33.18534 | 114.78079 | 35206 ft | 535 kts | 113° |
| 2026-05-07 03:21 | 33.15913 | 114.86388 | 35210 ft | 535 kts | 113° |
| 2026-05-07 03:22 | 33.13288 | 114.94688 | 35203 ft | 534 kts | 113° |
| 2026-05-07 03:22 | 33.10666 | 115.02978 | 35205 ft | 534 kts | 113° |
| 2026-05-07 03:23 | 33.08489 | 115.09854 | 35204 ft | 533 kts | 113° |
| 2026-05-07 03:23 | 33.05428 | 115.19443 | 35215 ft | 532 kts | 114° |
| 2026-05-07 03:24 | 33.02790 | 115.27678 | 35203 ft | 532 kts | 113° |
| 2026-05-07 03:24 | 33.00586 | 115.34574 | 35203 ft | 531 kts | 114° |
| 2026-05-07 03:25 | 32.97954 | 115.42791 | 35205 ft | 530 kts | 114° |
| 2026-05-07 03:25 | 32.95312 | 115.50991 | 35204 ft | 530 kts | 114° |
| 2026-05-07 03:26 | 32.92687 | 115.59180 | 35196 ft | 529 kts | 114° |
| 2026-05-07 03:26 | 32.90081 | 115.67313 | 35197 ft | 529 kts | 114° |
| 2026-05-07 03:27 | 32.86777 | 115.75035 | 35196 ft | 520 kts | 130° |
| 2026-05-07 03:27 | 32.82254 | 115.81662 | 35188 ft | 516 kts | 135° |
| 2026-05-07 03:28 | 32.77666 | 115.88214 | 35178 ft | 516 kts | 135° |
| 2026-05-07 03:28 | 32.73080 | 115.94766 | 35182 ft | 516 kts | 135° |
| 2026-05-07 03:29 | 32.68491 | 116.01307 | 35176 ft | 515 kts | 135° |
| 2026-05-07 03:29 | 32.63903 | 116.07827 | 35157 ft | 514 kts | 134° |
| 2026-05-07 03:30 | 32.59318 | 116.14329 | 35167 ft | 514 kts | 135° |
| 2026-05-07 03:30 | 32.54737 | 116.20824 | 35168 ft | 513 kts | 134° |
| 2026-05-07 03:31 | 32.50169 | 116.27327 | 35164 ft | 513 kts | 134° |
| 2026-05-07 03:31 | 32.45608 | 116.33824 | 35163 ft | 513 kts | 134° |
| 2026-05-07 03:32 | 32.41044 | 116.40307 | 35152 ft | 512 kts | 134° |
| 2026-05-07 03:32 | 32.36506 | 116.46736 | 35153 ft | 512 kts | 134° |
| 2026-05-07 03:33 | 32.32003 | 116.53274 | 35148 ft | 513 kts | 133° |
| 2026-05-07 03:33 | 32.27579 | 116.59894 | 35127 ft | 513 kts | 133° |
| 2026-05-07 03:34 | 32.23157 | 116.66495 | 35135 ft | 512 kts | 133° |
| 2026-05-07 03:34 | 32.18704 | 116.73055 | 35135 ft | 512 kts | 133° |
| 2026-05-07 03:35 | 32.14158 | 116.79498 | 35121 ft | 510 kts | 135° |
| 2026-05-07 03:35 | 32.09516 | 116.85830 | 35121 ft | 510 kts | 135° |
| 2026-05-07 03:36 | 32.04892 | 116.92164 | 35118 ft | 509 kts | 135° |
| 2026-05-07 03:36 | 32.00311 | 116.98531 | 35123 ft | 509 kts | 135° |
| 2026-05-07 03:37 | 31.95742 | 117.04900 | 35121 ft | 509 kts | 135° |
| 2026-05-07 03:37 | 31.91171 | 117.11255 | 35104 ft | 508 kts | 135° |
| 2026-05-07 03:38 | 31.86600 | 117.17601 | 35110 ft | 508 kts | 135° |
| 2026-05-07 03:38 | 31.82024 | 117.23935 | 35094 ft | 509 kts | 133° |
| 2026-05-07 03:39 | 31.78449 | 117.31186 | 35097 ft | 520 kts | 114° |
| 2026-05-07 03:39 | 31.77429 | 117.35279 | 35094 ft | 524 kts | 103° |
| 2026-05-07 03:39 | 31.76959 | 117.39529 | 35086 ft | 526 kts | 96° |
| 2026-05-07 03:40 | 31.76375 | 117.48102 | 35080 ft | 527 kts | 97° |
| 2026-05-07 03:40 | 31.75751 | 117.56681 | 35077 ft | 527 kts | 97° |
| 2026-05-07 03:41 | 31.75126 | 117.65215 | 35078 ft | 528 kts | 97° |
| 2026-05-07 03:41 | 31.74507 | 117.73814 | 35081 ft | 528 kts | 97° |
| 2026-05-07 03:42 | 31.73889 | 117.82420 | 35087 ft | 529 kts | 97° |
| 2026-05-07 03:42 | 31.73259 | 117.91026 | 35083 ft | 529 kts | 97° |
| 2026-05-07 03:43 | 31.72612 | 117.99629 | 35100 ft | 529 kts | 97° |
| 2026-05-07 03:43 | 31.71967 | 118.08234 | 35079 ft | 529 kts | 96° |
| 2026-05-07 03:44 | 31.71336 | 118.16847 | 35064 ft | 530 kts | 96° |
| 2026-05-07 03:44 | 31.70745 | 118.25479 | 35057 ft | 531 kts | 96° |
| 2026-05-07 03:45 | 31.70153 | 118.34121 | 35062 ft | 531 kts | 96° |
| 2026-05-07 03:45 | 31.69542 | 118.42768 | 35055 ft | 532 kts | 96° |
| 2026-05-07 03:46 | 31.68926 | 118.51432 | 35049 ft | 533 kts | 96° |
| 2026-05-07 03:46 | 31.68295 | 118.60112 | 34820 ft | 533 kts | 96° |
| 2026-05-07 03:46 | 31.67979 | 118.64417 | 34360 ft | 527 kts | 96° |
| 2026-05-07 03:47 | 31.67667 | 118.68688 | 33889 ft | 524 kts | 96° |
| 2026-05-07 03:47 | 31.67357 | 118.72940 | 33368 ft | 523 kts | 96° |
| 2026-05-07 03:47 | 31.67044 | 118.77192 | 32857 ft | 523 kts | 96° |
| 2026-05-07 03:47 | 31.66728 | 118.81441 | 32355 ft | 523 kts | 96° |
| 2026-05-07 03:48 | 31.66408 | 118.85692 | 31865 ft | 523 kts | 96° |
| 2026-05-07 03:48 | 31.65935 | 118.89917 | 31379 ft | 521 kts | 104° |
| 2026-05-07 03:48 | 31.64927 | 118.93988 | 30904 ft | 518 kts | 114° |
| 2026-05-07 03:48 | 31.63404 | 118.97790 | 30426 ft | 515 kts | 123° |
| 2026-05-07 03:49 | 31.61410 | 119.01263 | 29965 ft | 512 kts | 133° |
| 2026-05-07 03:49 | 31.59006 | 119.04317 | 29417 ft | 507 kts | 142° |
| 2026-05-07 03:49 | 31.56278 | 119.06902 | 28887 ft | 504 kts | 148° |
| 2026-05-07 03:49 | 31.53471 | 119.09359 | 28367 ft | 504 kts | 148° |
| 2026-05-07 03:50 | 31.50658 | 119.11822 | 27851 ft | 505 kts | 148° |
| 2026-05-07 03:50 | 31.47877 | 119.14256 | 27351 ft | 506 kts | 148° |
| 2026-05-07 03:50 | 31.45051 | 119.16719 | 26851 ft | 506 kts | 148° |
| 2026-05-07 03:50 | 31.42220 | 119.19174 | 26357 ft | 507 kts | 147° |
| 2026-05-07 03:51 | 31.39391 | 119.21635 | 25876 ft | 507 kts | 147° |
| 2026-05-07 03:51 | 31.36567 | 119.24099 | 25411 ft | 507 kts | 146° |
| 2026-05-07 03:51 | 31.33738 | 119.26571 | 24943 ft | 507 kts | 146° |
| 2026-05-07 03:51 | 31.30915 | 119.29039 | 24491 ft | 507 kts | 146° |
| 2026-05-07 03:52 | 31.28086 | 119.31511 | 24043 ft | 508 kts | 146° |
| 2026-05-07 03:52 | 31.25264 | 119.33973 | 23607 ft | 505 kts | 146° |
| 2026-05-07 03:52 | 31.22453 | 119.36418 | 23110 ft | 502 kts | 146° |
| 2026-05-07 03:52 | 31.19662 | 119.38841 | 22582 ft | 498 kts | 146° |
| 2026-05-07 03:53 | 31.16894 | 119.41247 | 22072 ft | 494 kts | 146° |
| 2026-05-07 03:53 | 31.14155 | 119.43638 | 21568 ft | 490 kts | 146° |
| 2026-05-07 03:53 | 31.11441 | 119.46015 | 21069 ft | 486 kts | 146° |
| 2026-05-07 03:53 | 31.08748 | 119.48374 | 20581 ft | 483 kts | 146° |
| 2026-05-07 03:54 | 31.06068 | 119.50717 | 20106 ft | 479 kts | 146° |
| 2026-05-07 03:54 | 31.03413 | 119.53039 | 19644 ft | 475 kts | 146° |
| 2026-05-07 03:54 | 31.00776 | 119.55337 | 19177 ft | 472 kts | 146° |
| 2026-05-07 03:54 | 30.98156 | 119.57617 | 18724 ft | 468 kts | 146° |
| 2026-05-07 03:55 | 30.95553 | 119.59879 | 18275 ft | 465 kts | 146° |
| 2026-05-07 03:55 | 30.92968 | 119.62124 | 17768 ft | 462 kts | 146° |
| 2026-05-07 03:55 | 30.90405 | 119.64349 | 17279 ft | 458 kts | 146° |
| 2026-05-07 03:55 | 30.87895 | 119.66530 | 16824 ft | 454 kts | 146° |
| 2026-05-07 03:56 | 30.85375 | 119.68720 | 16381 ft | 451 kts | 146° |
| 2026-05-07 03:56 | 30.82870 | 119.70895 | 15943 ft | 448 kts | 146° |
| 2026-05-07 03:56 | 30.80382 | 119.73052 | 15496 ft | 444 kts | 146° |
| 2026-05-07 03:56 | 30.77914 | 119.75189 | 15069 ft | 441 kts | 146° |
| 2026-05-07 03:57 | 30.75465 | 119.77320 | 14644 ft | 439 kts | 144° |
| 2026-05-07 03:57 | 30.73259 | 119.79763 | 14233 ft | 439 kts | 133° |
| 2026-05-07 03:57 | 30.71489 | 119.82648 | 13820 ft | 439 kts | 122° |
| 2026-05-07 03:57 | 30.70220 | 119.85876 | 13365 ft | 438 kts | 110° |
| 2026-05-07 03:58 | 30.69311 | 119.89213 | 12905 ft | 428 kts | 109° |
| 2026-05-07 03:58 | 30.68431 | 119.92470 | 12433 ft | 418 kts | 109° |
| 2026-05-07 03:58 | 30.67556 | 119.95651 | 12000 ft | 408 kts | 111° |
| 2026-05-07 03:58 | 30.66317 | 119.98554 | 11557 ft | 397 kts | 126° |
| 2026-05-07 03:59 | 30.64562 | 120.00961 | 11125 ft | 386 kts | 140° |
| 2026-05-07 03:59 | 30.62472 | 120.02841 | 10692 ft | 376 kts | 146° |
| 2026-05-07 03:59 | 30.60368 | 120.04603 | 10273 ft | 370 kts | 146° |
| 2026-05-07 03:59 | 30.58301 | 120.06337 | 9859 ft | 363 kts | 146° |
| 2026-05-07 04:00 | 30.56266 | 120.08042 | 9389 ft | 358 kts | 146° |
| 2026-05-07 04:00 | 30.54260 | 120.09720 | 8936 ft | 353 kts | 146° |
| 2026-05-07 04:00 | 30.52282 | 120.11371 | 8482 ft | 348 kts | 146° |
| 2026-05-07 04:00 | 30.50328 | 120.13001 | 8038 ft | 344 kts | 146° |
| 2026-05-07 04:01 | 30.48375 | 120.14571 | 7599 ft | 339 kts | 152° |
| 2026-05-07 04:01 | 30.46256 | 120.15718 | 7165 ft | 334 kts | 159° |
| 2026-05-07 04:01 | 30.44144 | 120.16776 | 6913 ft | 325 kts | 158° |
| 2026-05-07 04:01 | 30.42127 | 120.17789 | 6904 ft | 307 kts | 158° |
| 2026-05-07 04:02 | 30.40217 | 120.18751 | 6906 ft | 293 kts | 158° |
| 2026-05-07 04:02 | 30.38357 | 120.19687 | 6907 ft | 291 kts | 159° |
| 2026-05-07 04:02 | 30.36503 | 120.20614 | 6910 ft | 290 kts | 159° |
| 2026-05-07 04:02 | 30.34650 | 120.21542 | 6909 ft | 290 kts | 159° |
| 2026-05-07 04:03 | 30.32802 | 120.22469 | 6908 ft | 290 kts | 158° |
| 2026-05-07 04:03 | 30.30972 | 120.23459 | 6908 ft | 291 kts | 156° |
| 2026-05-07 04:03 | 30.29178 | 120.24535 | 6908 ft | 291 kts | 149° |
| 2026-05-07 04:03 | 30.27745 | 120.26177 | 6887 ft | 294 kts | 121° |
| 2026-05-07 04:04 | 30.27117 | 120.28400 | 6771 ft | 293 kts | 92° |
| 2026-05-07 04:04 | 30.27428 | 120.30688 | 6650 ft | 288 kts | 65° |
| 2026-05-07 04:04 | 30.28319 | 120.32764 | 6530 ft | 288 kts | 60° |
| 2026-05-07 04:04 | 30.29238 | 120.34821 | 6417 ft | 287 kts | 60° |
| 2026-05-07 04:05 | 30.30155 | 120.36871 | 6289 ft | 287 kts | 60° |
| 2026-05-07 04:05 | 30.31069 | 120.38917 | 6168 ft | 286 kts | 60° |
| 2026-05-07 04:05 | 30.31978 | 120.40960 | 6044 ft | 286 kts | 60° |
| 2026-05-07 04:05 | 30.32883 | 120.43005 | 5918 ft | 286 kts | 60° |
| 2026-05-07 04:06 | 30.33787 | 120.45047 | 5900 ft | 285 kts | 60° |
| 2026-05-07 04:06 | 30.34688 | 120.47088 | 5829 ft | 281 kts | 60° |
| 2026-05-07 04:06 | 30.35551 | 120.49052 | 5748 ft | 267 kts | 60° |
| 2026-05-07 04:06 | 30.36373 | 120.50922 | 5671 ft | 254 kts | 60° |
| 2026-05-07 04:07 | 30.37158 | 120.52703 | 5603 ft | 243 kts | 60° |
| 2026-05-07 04:07 | 30.37915 | 120.54417 | 5515 ft | 237 kts | 59° |
| 2026-05-07 04:07 | 30.38663 | 120.56110 | 5451 ft | 236 kts | 59° |
| 2026-05-07 04:07 | 30.39410 | 120.57799 | 5377 ft | 235 kts | 60° |
| 2026-05-07 04:08 | 30.40153 | 120.59484 | 5269 ft | 235 kts | 60° |
| 2026-05-07 04:08 | 30.40884 | 120.61146 | 5154 ft | 228 kts | 59° |
| 2026-05-07 04:08 | 30.41548 | 120.62776 | 5062 ft | 221 kts | 71° |
| 2026-05-07 04:08 | 30.41606 | 120.64506 | 4987 ft | 215 kts | 103° |
| 2026-05-07 04:09 | 30.40917 | 120.66003 | 4886 ft | 211 kts | 135° |
| 2026-05-07 04:09 | 30.39715 | 120.66936 | 4802 ft | 208 kts | 155° |
| 2026-05-07 04:09 | 30.38413 | 120.67662 | 4695 ft | 207 kts | 163° |
| 2026-05-07 04:09 | 30.37016 | 120.67811 | 4584 ft | 201 kts | 194° |
| 2026-05-07 04:10 | 30.35760 | 120.67191 | 4286 ft | 195 kts | 222° |
| 2026-05-07 04:10 | 30.35162 | 120.66448 | 4118 ft | 189 kts | 240° |
| 2026-05-07 04:10 | 30.34349 | 120.64651 | 3797 ft | 189 kts | 246° |
| 2026-05-07 04:10 | 30.33955 | 120.63754 | 3636 ft | 189 kts | 245° |
| 2026-05-07 04:11 | 30.33361 | 120.62407 | 3393 ft | 188 kts | 245° |
| 2026-05-07 04:11 | 30.32769 | 120.61064 | 3149 ft | 186 kts | 245° |
| 2026-05-07 04:11 | 30.32180 | 120.59729 | 2911 ft | 186 kts | 245° |
| 2026-05-07 04:11 | 30.31592 | 120.58396 | 2672 ft | 185 kts | 245° |
| 2026-05-07 04:12 | 30.31016 | 120.57093 | 2435 ft | 178 kts | 244° |
| 2026-05-07 04:12 | 30.30456 | 120.55826 | 2209 ft | 176 kts | 244° |
| 2026-05-07 04:12 | 30.29902 | 120.54572 | 1978 ft | 173 kts | 243° |
| 2026-05-07 04:12 | 30.29368 | 120.53363 | 1764 ft | 164 kts | 244° |
| 2026-05-07 04:13 | 30.28875 | 120.52250 | 1572 ft | 148 kts | 242° |
| 2026-05-07 04:13 | 30.28418 | 120.51216 | 1370 ft | 141 kts | 242° |
| 2026-05-07 04:13 | 30.27978 | 120.50220 | 1194 ft | 138 kts | 243° |
| 2026-05-07 04:13 | 30.27546 | 120.49246 | 1014 ft | 138 kts | 243° |
| 2026-05-07 04:14 | 30.27112 | 120.48264 | 846 ft | 138 kts | 243° |
| 2026-05-07 04:14 | 30.26676 | 120.47279 | 678 ft | 137 kts | 242° |
| 2026-05-07 04:14 | 30.26247 | 120.46292 | 478 ft | 137 kts | 244° |
| 2026-05-07 04:14 | 30.25814 | 120.45306 | 295 ft | 138 kts | 242° |
| 2026-05-07 04:15 | 30.25370 | 120.44333 | 151 ft | 137 kts | 243° |
| 2026-05-07 04:15 | 30.24941 | 120.43363 | 38 ft | 128 kts | 243° |
| 2026-05-07 04:15 | 30.24598 | 120.42587 | 30 ft | 84 kts | 243° |
| 2026-05-07 04:15 | 30.24407 | 120.42155 | 32 ft | 42 kts | 243° |
| 2026-05-07 04:16 | 30.24274 | 120.41919 | 32 ft | 32 kts | 225° |
| 2026-05-07 04:16 | 30.24184 | 120.41836 | 32 ft | 10 kts | 218° |
| 2026-05-07 04:16 | 30.24129 | 120.41792 | 32 ft | 9 kts | 211° |
| 2026-05-07 04:16 | 30.24083 | 120.41817 | 32 ft | 7 kts | 117° |
| 2026-05-07 04:17 | 30.24108 | 120.41915 | 32 ft | 19 kts | 63° |
| 2026-05-07 04:17 | 30.24171 | 120.42058 | 31 ft | 20 kts | 63° |
| 2026-05-07 04:17 | 30.24236 | 120.42204 | 32 ft | 21 kts | 63° |
| 2026-05-07 04:17 | 30.24303 | 120.42354 | 31 ft | 18 kts | 62° |
| 2026-05-07 04:18 | 30.24359 | 120.42482 | 32 ft | 17 kts | 63° |
| 2026-05-07 04:18 | 30.24412 | 120.42601 | 31 ft | 16 kts | 63° |
| 2026-05-07 04:18 | 30.24456 | 120.42701 | 32 ft | 11 kts | 68° |
| 2026-05-07 04:18 | 30.24428 | 120.42755 | 32 ft | 8 kts | 155° |
| 2026-05-07 04:19 | 30.24373 | 120.42787 | 32 ft | 11 kts | 153° |
| 2026-05-07 04:19 | 30.24291 | 120.42791 | 32 ft | 13 kts | 189° |
| 2026-05-07 04:19 | 30.24212 | 120.42829 | 32 ft | 12 kts | 152° |
| 2026-05-07 04:19 | 30.24162 | 120.42852 | 32 ft | 3 kts | 200° |
| 2026-05-07 04:20 | 30.24144 | 120.42839 | 32 ft | 2 kts | 208° |
| 2026-05-07 04:20 | 30.24136 | 120.42829 | 32 ft | 1 kts | 236° |
| 2026-05-07 04:20 | 30.24133 | 120.42823 | 32 ft | 2 kts | 237° |
| 2026-05-07 04:21 | 30.24123 | 120.42807 | 31 ft | 0 kts | 234° |
| 2026-05-07 04:21 | 30.24121 | 120.42803 | 31 ft | 0 kts | 234° |